Flight Track Log - Related Links

Times and Time Zones

All times are in EDT time to prevent confusion due to time zone crossing. See the RAX308 flight status page for this flight to view local times or setup timezone preferences in your user account.

Time Position Orientation Groundspeed Altitude Reporting Facility
EDT Latitude Longitude Course Direction KTS MPH feet Rate Location/Type
Thu 06:42:26 PM 33.3217 -86.8556 105° East 265 305 4,100  Level Atlanta Center
Thu 06:43:39 PM 33.3008 -86.7628 105° East 225 259 8,400 3,298 Climbing Atlanta Center
Thu 06:44:57 PM 33.2842 -86.6581 101° East 249 287 12,400 2,957 Climbing Atlanta Center
Thu 06:45:57 PM 33.2839 -86.5783 90° East 236 272 15,200 2,650 Climbing Atlanta Center
Thu 06:46:57 PM 33.3042 -86.5094 71° East 236 272 17,700 2,200 Climbing Atlanta Center
Thu 06:47:57 PM 33.3697 -86.4592 33° Northeast 236 272 19,600 1,950 Climbing Atlanta Center
Thu 06:48:57 PM 33.4586 -86.4017 28° Northeast 281 323 21,600 1,900 Climbing Atlanta Center
Thu 06:49:57 PM 33.5369 -86.3392 34° Northeast 300 345 23,400 1,800 Climbing Atlanta Center
Thu 06:50:57 PM 33.5578 -86.2250 78° East 318 366 25,200 1,200 Climbing Atlanta Center
Thu 06:51:57 PM 33.5578 -86.0978 90° East 350 403 25,800 850 Climbing Atlanta Center
Thu 06:52:57 PM 33.5581 -85.9633 90° East 372 428 26,900 1,050 Climbing Atlanta Center
Thu 06:53:57 PM 33.5664 -85.8264 86° East 392 451 27,900 1,000 Climbing Atlanta Center
Thu 06:54:57 PM 33.5725 -85.6869 87° East 414 476 28,900 550 Climbing Atlanta Center
Thu 06:55:57 PM 33.5828 -85.5400 85° East 423 487 29,000 -250 Climbing Atlanta Center
Thu 06:56:57 PM 33.5844 -85.3878 89° East 447 514 28,400 -1,200 Descending Atlanta Center
Thu 06:57:57 PM 33.5922 -85.2308 87° East 465 535 26,600 -1,200 Descending Atlanta Center
Thu 06:58:57 PM 33.6000 -85.0789 86° East 460 529 26,000 -550 Descending Atlanta Center
Thu 06:59:57 PM 33.6114 -84.9367 84° East 433 498 25,500 -550 Descending Atlanta Center
Thu 07:00:57 PM 33.6269 -84.7997 82° East 422 486 24,900 -650 Descending Atlanta Center
Thu 07:01:57 PM 33.6403 -84.6725 83° East 422 486 24,200 -450 Descending Atlanta Center
Thu 07:02:57 PM 33.6533 -84.5378 83° East 416 479 24,000 -100 Descending Atlanta Center
Thu 07:03:57 PM 33.6644 -84.3981 85° East 416 479 24,000 -150 Level Atlanta Center
Thu 07:04:57 PM 33.6856 -84.2686 79° East 405 466 23,700 -450 Descending Atlanta Center
Thu 07:05:57 PM 33.7275 -84.1136 72° East 415 478 23,100 -650 Descending Atlanta Center
Thu 07:06:57 PM 33.7650 -83.9814 71° East 421 484 22,400 -800 Descending Atlanta Center
Thu 07:07:57 PM 33.8025 -83.8539 70° East 415 478 21,500 -700 Descending Atlanta Center
Thu 07:08:57 PM 33.8397 -83.7261 71° East 403 464 21,000 -250 Descending Atlanta Center
Thu 07:09:57 PM 33.8875 -83.6258 60° Northeast 392 451 21,000  Level Atlanta Center
Thu 07:10:57 PM 33.9600 -83.5228 50° Northeast 386 444 21,000 -150 Level Atlanta Center
Thu 07:11:57 PM 34.0286 -83.4222 51° Northeast 386 444 20,700 -750 Descending Atlanta Center
Thu 07:12:57 PM 34.1011 -83.3214 49° Northeast 386 444 19,500 -1,350 Descending Atlanta Center
Thu 07:13:57 PM 34.1692 -83.2203 51° Northeast 386 444 18,000 -1,350 Descending Atlanta Center
Thu 07:14:57 PM 34.2375 -83.1242 49° Northeast 386 444 16,800 -1,150 Descending Atlanta Center
Thu 07:15:57 PM 34.2994 -83.0306 51° Northeast 369 425 15,700 -1,500 Descending Atlanta Center
Thu 07:16:57 PM 34.3675 -82.9367 49° Northeast 358 412 13,800 -2,250 Descending Atlanta Center
Thu 07:17:57 PM 34.4375 -82.8347 50° Northeast 358 412 11,200 -1,650 Descending Atlanta Center
Thu 07:18:57 PM 34.5014 -82.7533 46° Northeast 344 396 10,500 -1,000 Descending Atlanta Center
Thu 07:19:57 PM 34.5403 -82.6847 55° Northeast 310 357 9,200 -1,450 Descending Atlanta Center
Thu 07:20:57 PM 34.5831 -82.6083 56° Northeast 284 327 7,600 -1,750 Descending Atlanta Center
Thu 07:21:57 PM 34.6261 -82.5394 53° Northeast 267 307 5,700 -2,150 Descending Atlanta Center
Thu 07:22:57 PM 34.6733 -82.4678 51° Northeast 267 307 3,300 -1,600 Descending Atlanta Center
Thu 07:23:57 PM 34.7206 -82.4114 44° Northeast 254 292 2,500 -1,100 Descending Atlanta Center
Thu 07:24:57 PM 34.7697 -82.3472 47° Northeast 238 274 1,100 -1,400 Descending Atlanta Center
Thu 07:27:00 PM 34.7500 -82.3667 39° Northeast  Level FlightAware Approximate
Thu 07:34:00 PM 34.7583 -82.3764 39° Northeast  Level Estimated
Thu 07:35:00 PM 34.7583 -82.3764 39° Northeast  Level Estimated

Login

Don't have an account? Register now (free) for customized features, flight alerts, and more!